Time;durP1;ratioP1;P1;durP2;ratioP2;P2;SDS_P1;SDS_P2;PMS_P1;PMS_P2;Temp;Humidity;BMP_temperature;BMP_pressure;BME280_temperature;BME280_humidity;BME280_pressure;Samples;Min_cycle;Max_cycle;Signal;HPM_P1;HPM_P2
2022/04/07 00:01:08;;;;;;;75.57;69.00;;;;;;;;;;4955637;29;20179;-62
2022/04/07 00:03:34;;;;;;;73.53;67.18;;;;;;;;;;4955713;29;20923;-62
2022/04/07 00:06:01;;;;;;;74.68;68.28;;;;;;;;;;4955751;29;20176;-62
2022/04/07 00:08:27;;;;;;;79.50;72.43;;;;;;;;;;4956546;29;20184;-62
2022/04/07 00:10:53;;;;;;;74.97;68.57;;;;;;;;;;4955561;29;20187;-62
2022/04/07 00:13:19;;;;;;;71.90;65.87;;;;;;;;;;4955583;29;20427;-62
2022/04/07 00:15:45;;;;;;;70.93;65.13;;;;;;;;;;4955703;29;20419;-62
2022/04/07 00:18:11;;;;;;;78.40;71.60;;;;;;;;;;4955532;29;20415;-62
2022/04/07 00:20:37;;;;;;;80.75;73.82;;;;;;;;;;4955209;28;20644;-62
2022/04/07 00:23:03;;;;;;;80.10;73.33;;;;;;;;;;4955322;29;20231;-62
2022/04/07 00:25:29;;;;;;;82.72;75.32;;;;;;;;;;4955676;29;20407;-62
2022/04/07 00:27:55;;;;;;;78.18;71.15;;;;;;;;;;4955429;29;20218;-62
2022/04/07 00:30:21;;;;;;;79.33;72.60;;;;;;;;;;4955171;29;20707;-62
2022/04/07 00:32:48;;;;;;;77.53;70.72;;;;;;;;;;4955293;29;20427;-62
2022/04/07 00:35:14;;;;;;;75.50;68.80;;;;;;;;;;4955247;29;20204;-62
2022/04/07 00:37:41;;;;;;;69.72;63.65;;;;;;;;;;4955206;29;20243;-61
2022/04/07 00:40:07;;;;;;;77.53;71.05;;;;;;;;;;4954969;28;20742;-62
2022/04/07 00:42:34;;;;;;;74.05;67.85;;;;;;;;;;4955047;29;20251;-62
2022/04/07 00:45:01;;;;;;;70.28;64.25;;;;;;;;;;4955360;29;20659;-62
2022/04/07 00:47:27;;;;;;;83.00;75.40;;;;;;;;;;4955030;29;20215;-62
2022/04/07 00:49:54;;;;;;;81.55;74.65;;;;;;;;;;4954879;29;20329;-62
2022/04/07 00:52:20;;;;;;;76.57;69.78;;;;;;;;;;4954660;29;20231;-62
2022/04/07 00:54:46;;;;;;;83.45;76.25;;;;;;;;;;4955134;29;20191;-62
2022/04/07 00:57:12;;;;;;;81.28;74.47;;;;;;;;;;4954907;29;20176;-62
2022/04/07 00:59:39;;;;;;;65.03;60.13;;;;;;;;;;4954805;29;20552;-62
2022/04/07 01:02:05;;;;;;;85.90;77.53;;;;;;;;;;4954497;29;20186;-62
2022/04/07 01:04:31;;;;;;;94.75;84.95;;;;;;;;;;4954626;29;20778;-62
2022/04/07 01:06:57;;;;;;;93.90;84.43;;;;;;;;;;4954682;29;20239;-61
2022/04/07 01:09:23;;;;;;;88.07;78.97;;;;;;;;;;4954239;29;20404;-61
2022/04/07 01:11:49;;;;;;;89.65;80.38;;;;;;;;;;4954273;29;20416;-61
2022/04/07 01:14:15;;;;;;;88.35;79.65;;;;;;;;;;4954551;28;20719;-61
2022/04/07 01:16:41;;;;;;;88.20;78.93;;;;;;;;;;4954526;29;20180;-61
2022/04/07 01:19:07;;;;;;;90.03;81.73;;;;;;;;;;4954651;29;20190;-61
2022/04/07 01:21:34;;;;;;;90.30;81.80;;;;;;;;;;4954209;29;20875;-61
2022/04/07 01:24:02;;;;;;;88.57;79.45;;;;;;;;;;4954257;29;20491;-62
2022/04/07 01:26:31;;;;;;;89.88;80.78;;;;;;;;;;4954258;29;20707;-61
2022/04/07 01:28:56;;;;;;;88.90;79.72;;;;;;;;;;4954302;29;20187;-62
2022/04/07 01:31:22;;;;;;;90.20;80.93;;;;;;;;;;4953443;28;20541;-62
2022/04/07 01:33:49;;;;;;;94.47;82.37;;;;;;;;;;4954163;29;20974;-61
2022/04/07 01:36:17;;;;;;;83.05;75.20;;;;;;;;;;4954160;29;20412;-61
2022/04/07 01:38:43;;;;;;;93.95;80.88;;;;;;;;;;4954171;29;20215;-61
2022/04/07 01:41:09;;;;;;;69.53;64.03;;;;;;;;;;4953794;29;20656;-61
2022/04/07 01:43:35;;;;;;;82.70;74.57;;;;;;;;;;4954029;29;20203;-61
2022/04/07 01:46:02;;;;;;;89.30;79.05;;;;;;;;;;4953995;29;20413;-61
2022/04/07 01:48:28;;;;;;;80.65;72.47;;;;;;;;;;4954051;29;20319;-61
2022/04/07 01:50:54;;;;;;;82.22;73.75;;;;;;;;;;4953695;29;20767;-61
2022/04/07 01:53:21;;;;;;;88.87;77.57;;;;;;;;;;4953812;29;20231;-61
2022/04/07 01:55:47;;;;;;;83.00;74.32;;;;;;;;;;4953855;29;20403;-61
2022/04/07 01:58:16;;;;;;;69.53;63.95;;;;;;;;;;4953884;29;20290;-61
2022/04/07 02:00:42;;;;;;;65.25;60.30;;;;;;;;;;4953678;29;20186;-61
2022/04/07 02:03:11;;;;;;;68.45;62.90;;;;;;;;;;4952578;29;20207;-61
2022/04/07 02:05:37;;;;;;;72.97;66.95;;;;;;;;;;4953297;29;20187;-61
2022/04/07 02:08:03;;;;;;;95.50;81.25;;;;;;;;;;4952810;29;20269;-61
2022/04/07 02:10:31;;;;;;;90.45;78.50;;;;;;;;;;4953225;29;20209;-61
2022/04/07 02:12:58;;;;;;;86.03;76.78;;;;;;;;;;4953673;28;20208;-61
2022/04/07 02:15:25;;;;;;;81.68;73.07;;;;;;;;;;4953544;29;20259;-61
2022/04/07 02:17:51;;;;;;;69.35;63.65;;;;;;;;;;4953638;29;20190;-61
2022/04/07 02:20:17;;;;;;;84.63;75.57;;;;;;;;;;4953291;29;20263;-61
2022/04/07 02:22:42;;;;;;;85.70;73.93;;;;;;;;;;4953202;28;20451;-61
2022/04/07 02:25:09;;;;;;;85.13;75.37;;;;;;;;;;4953527;29;20512;-61
2022/04/07 02:27:41;;;;;;;87.28;77.45;;;;;;;;;;4953353;29;20462;-61
2022/04/07 02:30:09;;;;;;;83.95;71.75;;;;;;;;;;4953314;29;20588;-61
2022/04/07 02:32:35;;;;;;;86.25;74.60;;;;;;;;;;4953401;28;20620;-61
2022/04/07 02:35:01;;;;;;;82.53;73.63;;;;;;;;;;4953384;29;20207;-61
2022/04/07 02:37:27;;;;;;;89.03;78.50;;;;;;;;;;4953201;29;20419;-61
2022/04/07 02:39:53;;;;;;;87.00;74.63;;;;;;;;;;4953317;29;20419;-61
2022/04/07 02:42:19;;;;;;;87.93;74.65;;;;;;;;;;4953024;28;20200;-61
2022/04/07 02:44:45;;;;;;;81.10;72.50;;;;;;;;;;4957052;29;20642;-61
2022/04/07 02:47:11;;;;;;;83.30;74.60;;;;;;;;;;4957170;29;20675;-61
2022/04/07 02:49:41;;;;;;;78.73;70.80;;;;;;;;;;4957126;29;20230;-61
2022/04/07 02:52:11;;;;;;;80.70;72.40;;;;;;;;;;4956957;29;20765;-61
2022/04/07 02:54:37;;;;;;;88.20;78.28;;;;;;;;;;4957334;29;20600;-61
2022/04/07 02:57:04;;;;;;;80.97;72.47;;;;;;;;;;4957219;29;20191;-60
2022/04/07 02:59:30;;;;;;;84.72;75.72;;;;;;;;;;4956981;29;20180;-60
2022/04/07 03:01:56;;;;;;;85.25;76.03;;;;;;;;;;4956803;29;20595;-60
2022/04/07 03:04:24;;;;;;;82.38;73.63;;;;;;;;;;4956870;28;20254;-60
2022/04/07 03:06:51;;;;;;;87.90;76.75;;;;;;;;;;4956892;29;20200;-61
2022/04/07 03:09:17;;;;;;;86.70;73.90;;;;;;;;;;4956796;29;20735;-61
2022/04/07 03:11:43;;;;;;;94.80;76.80;;;;;;;;;;4956624;29;20259;-61
2022/04/07 03:14:08;;;;;;;88.97;75.57;;;;;;;;;;4956721;28;20288;-61
2022/04/07 03:16:34;;;;;;;94.47;76.10;;;;;;;;;;4956789;29;20415;-59
2022/04/07 03:19:00;;;;;;;97.40;77.10;;;;;;;;;;4956663;29;20434;-60
2022/04/07 03:21:26;;;;;;;100.82;75.03;;;;;;;;;;4956540;29;20415;-61
2022/04/07 03:23:52;;;;;;;95.30;74.00;;;;;;;;;;4956447;28;20219;-60
2022/04/07 03:26:18;;;;;;;93.60;76.17;;;;;;;;;;4956480;29;20498;-61
2022/04/07 03:28:44;;;;;;;94.50;75.93;;;;;;;;;;4956492;29;20494;-61
2022/04/07 03:31:10;;;;;;;73.55;67.13;;;;;;;;;;4956309;29;20414;-61
2022/04/07 03:33:36;;;;;;;78.87;71.37;;;;;;;;;;4956317;28;20680;-61
2022/04/07 03:36:02;;;;;;;73.03;66.53;;;;;;;;;;4956452;29;20407;-61
2022/04/07 03:38:28;;;;;;;98.55;79.80;;;;;;;;;;4956277;29;20425;-61
2022/04/07 03:40:54;;;;;;;102.90;78.90;;;;;;;;;;4956051;29;20266;-61
2022/04/07 03:43:21;;;;;;;100.50;75.57;;;;;;;;;;4956185;28;20427;-61
2022/04/07 03:45:47;;;;;;;103.13;79.90;;;;;;;;;;4956271;29;20429;-61
2022/04/07 03:48:13;;;;;;;104.10;79.40;;;;;;;;;;4956573;29;20207;-62
2022/04/07 03:50:39;;;;;;;91.40;74.77;;;;;;;;;;4955923;29;20458;-62
2022/04/07 03:53:05;;;;;;;98.60;76.32;;;;;;;;;;4956209;28;20427;-62
2022/04/07 03:55:31;;;;;;;81.13;72.18;;;;;;;;;;4955597;28;20172;-60
2022/04/07 03:57:57;;;;;;;98.80;75.80;;;;;;;;;;4956049;29;20259;-61
2022/04/07 04:00:23;;;;;;;99.67;77.77;;;;;;;;;;4955733;29;20415;-61
2022/04/07 04:02:50;;;;;;;108.50;77.60;;;;;;;;;;4955834;28;20444;-62
2022/04/07 04:05:17;;;;;;;96.82;76.50;;;;;;;;;;4955922;29;20194;-62
2022/04/07 04:07:43;;;;;;;107.50;78.85;;;;;;;;;;4955761;29;20204;-61
2022/04/07 04:10:09;;;;;;;113.47;78.17;;;;;;;;;;4955589;29;20176;-62
2022/04/07 04:12:35;;;;;;;104.53;76.47;;;;;;;;;;4955721;28;20443;-62
2022/04/07 04:15:01;;;;;;;97.17;78.57;;;;;;;;;;4955682;29;20176;-62
2022/04/07 04:17:31;;;;;;;118.70;79.30;;;;;;;;;;4955688;29;20422;-61
2022/04/07 04:19:56;;;;;;;118.88;81.72;;;;;;;;;;4955762;29;20443;-60
2022/04/07 04:22:22;;;;;;;113.40;80.47;;;;;;;;;;4955227;28;20234;-61
2022/04/07 04:24:48;;;;;;;109.25;79.28;;;;;;;;;;4955696;29;20434;-61
2022/04/07 04:27:15;;;;;;;113.20;79.20;;;;;;;;;;4955350;29;20208;-61
2022/04/07 04:29:43;;;;;;;110.72;80.80;;;;;;;;;;4955346;29;20411;-61
2022/04/07 04:32:12;;;;;;;82.10;74.20;;;;;;;;;;4955387;29;20227;-59
2022/04/07 04:34:38;;;;;;;104.60;77.78;;;;;;;;;;4955338;29;20180;-61
2022/04/07 04:37:05;;;;;;;78.90;70.07;;;;;;;;;;4955453;29;20548;-61
2022/04/07 04:39:30;;;;;;;89.45;79.75;;;;;;;;;;4955335;29;20194;-59
2022/04/07 04:41:56;;;;;;;84.73;75.83;;;;;;;;;;4954962;29;20707;-61
2022/04/07 04:44:22;;;;;;;86.87;76.90;;;;;;;;;;4955219;28;20438;-61
2022/04/07 04:46:48;;;;;;;90.70;79.87;;;;;;;;;;4955090;29;20469;-61
2022/04/07 04:49:14;;;;;;;89.63;77.67;;;;;;;;;;4955094;29;20419;-61
2022/04/07 04:51:40;;;;;;;81.60;72.80;;;;;;;;;;4954936;29;20416;-61
2022/04/07 04:54:06;;;;;;;86.13;76.97;;;;;;;;;;4954998;28;20860;-61
2022/04/07 04:56:32;;;;;;;86.27;76.87;;;;;;;;;;4954933;29;20416;-61
2022/04/07 04:58:58;;;;;;;118.23;80.43;;;;;;;;;;4954787;29;20430;-61
2022/04/07 05:01:25;;;;;;;119.60;82.50;;;;;;;;;;4954627;29;20415;-61
2022/04/07 05:03:50;;;;;;;119.25;81.65;;;;;;;;;;4954766;28;20210;-61
2022/04/07 05:06:16;;;;;;;116.07;83.17;;;;;;;;;;4953906;28;20179;-61
2022/04/07 05:08:43;;;;;;;89.63;75.57;;;;;;;;;;4954803;29;20487;-61
2022/04/07 05:11:08;;;;;;;103.35;81.70;;;;;;;;;;4954369;29;20495;-61
2022/04/07 05:13:34;;;;;;;120.60;84.57;;;;;;;;;;4954452;28;20295;-61
2022/04/07 05:16:00;;;;;;;114.10;82.17;;;;;;;;;;4954568;29;20927;-61
2022/04/07 05:18:26;;;;;;;118.37;83.47;;;;;;;;;;4954571;29;20410;-61
2022/04/07 05:20:52;;;;;;;122.77;84.50;;;;;;;;;;4954389;29;20408;-60
2022/04/07 05:23:18;;;;;;;81.47;73.57;;;;;;;;;;4954415;28;20974;-60
2022/04/07 05:25:45;;;;;;;85.05;77.47;;;;;;;;;;4973099;23;20812;-55
2022/04/07 05:28:11;;;;;;;79.00;71.97;;;;;;;;;;5012290;28;20566;-54
2022/04/07 05:30:37;;;;;;;76.40;69.28;;;;;;;;;;5016914;28;20252;-57
2022/04/07 05:33:03;;;;;;;71.80;65.80;;;;;;;;;;5015269;28;20193;-57
2022/04/07 05:35:30;;;;;;;80.15;72.25;;;;;;;;;;5014603;28;20823;-58
2022/04/07 05:37:59;;;;;;;108.70;80.85;;;;;;;;;;5012508;28;20177;-58
2022/04/07 05:40:26;;;;;;;94.32;77.95;;;;;;;;;;5012239;28;20177;-59
2022/04/07 05:42:52;;;;;;;104.78;76.85;;;;;;;;;;5012420;28;20197;-59
2022/04/07 05:45:18;;;;;;;104.80;81.03;;;;;;;;;;5012390;28;20265;-56
2022/04/07 05:47:44;;;;;;;105.93;81.50;;;;;;;;;;5012264;28;20201;-58
2022/04/07 05:50:11;;;;;;;115.27;80.23;;;;;;;;;;5012054;28;20192;-57
2022/04/07 05:52:37;;;;;;;114.10;80.90;;;;;;;;;;5012431;28;20436;-60
2022/04/07 05:55:03;;;;;;;112.97;80.63;;;;;;;;;;5012011;28;20189;-60
2022/04/07 05:57:32;;;;;;;110.35;80.50;;;;;;;;;;5012502;28;20210;-59
2022/04/07 06:00:18;;;;;;;114.65;82.53;;;;;;;;;;5012137;28;20180;-61
2022/04/07 06:02:44;;;;;;;106.28;81.72;;;;;;;;;;5012096;28;20177;-61
2022/04/07 06:05:11;;;;;;;118.45;85.38;;;;;;;;;;5012137;28;20547;-61
2022/04/07 06:07:37;;;;;;;113.07;86.10;;;;;;;;;;5011896;28;20695;-60
2022/04/07 06:10:04;;;;;;;114.40;86.10;;;;;;;;;;5012000;28;20178;-60
2022/04/07 06:12:30;;;;;;;105.15;83.50;;;;;;;;;;5011876;28;20553;-61
2022/04/07 06:14:56;;;;;;;112.90;85.27;;;;;;;;;;5012082;28;20169;-59
2022/04/07 06:17:31;;;;;;;106.13;91.00;;;;;;;;;;5013528;28;20424;-61
2022/04/07 06:19:57;;;;;;;98.10;86.97;;;;;;;;;;5013359;28;20502;-60
2022/04/07 06:22:23;;;;;;;99.40;88.57;;;;;;;;;;5011805;28;20170;-59
2022/04/07 06:24:49;;;;;;;105.90;94.37;;;;;;;;;;5018084;28;20176;-55
2022/04/07 06:27:15;;;;;;;103.03;92.03;;;;;;;;;;5031153;28;20557;-57
2022/04/07 06:29:41;;;;;;;101.17;90.77;;;;;;;;;;5031180;28;20419;-56
2022/04/07 06:32:07;;;;;;;98.63;88.60;;;;;;;;;;5031250;28;20461;-60
2022/04/07 06:34:34;;;;;;;95.80;86.03;;;;;;;;;;5031380;28;20410;-57
2022/04/07 06:37:00;;;;;;;103.45;92.70;;;;;;;;;;5030828;28;20224;-55
2022/04/07 06:39:26;;;;;;;99.43;89.15;;;;;;;;;;5031293;28;20283;-58
2022/04/07 06:41:52;;;;;;;99.60;88.97;;;;;;;;;;5031090;28;20188;-57
2022/04/07 06:44:21;;;;;;;102.77;91.13;;;;;;;;;;5020930;28;20474;-61
2022/04/07 06:46:47;;;;;;;102.68;92.47;;;;;;;;;;5011098;28;20463;-59
2022/04/07 06:49:13;;;;;;;106.17;95.97;;;;;;;;;;5019844;28;20173;-58
2022/04/07 06:51:39;;;;;;;96.57;86.97;;;;;;;;;;5011544;28;20408;-59
2022/04/07 06:54:05;;;;;;;100.85;90.15;;;;;;;;;;5011204;28;20400;-59
2022/04/07 06:56:31;;;;;;;102.10;91.67;;;;;;;;;;5011085;28;20200;-60
2022/04/07 06:58:57;;;;;;;98.73;88.53;;;;;;;;;;5010613;28;20408;-60
2022/04/07 07:01:23;;;;;;;106.57;95.77;;;;;;;;;;5011010;28;20923;-60
2022/04/07 07:03:49;;;;;;;100.68;90.82;;;;;;;;;;5011303;28;20405;-57
2022/04/07 07:06:15;;;;;;;101.87;91.93;;;;;;;;;;5011082;28;20197;-55
2022/04/07 07:08:42;;;;;;;99.87;89.97;;;;;;;;;;5011185;28;20416;-55
2022/04/07 07:11:08;;;;;;;99.57;90.03;;;;;;;;;;5010621;28;20416;-58
2022/04/07 07:13:36;;;;;;;101.43;91.27;;;;;;;;;;5011199;28;20565;-60
2022/04/07 07:16:02;;;;;;;103.85;93.85;;;;;;;;;;5011231;28;20851;-60
2022/04/07 07:18:28;;;;;;;104.65;94.35;;;;;;;;;;5010581;28;20189;-60
2022/04/07 07:20:54;;;;;;;100.20;91.33;;;;;;;;;;5010491;28;20181;-61
2022/04/07 07:23:20;;;;;;;106.47;96.00;;;;;;;;;;5010871;28;20416;-61
2022/04/07 07:25:47;;;;;;;104.18;94.28;;;;;;;;;;5010942;28;20478;-61
2022/04/07 07:28:13;;;;;;;109.72;98.82;;;;;;;;;;5010748;28;20202;-59
2022/04/07 07:30:39;;;;;;;104.05;93.38;;;;;;;;;;5013389;28;20727;-60
2022/04/07 07:33:05;;;;;;;112.00;100.50;;;;;;;;;;5013657;28;20193;-60
2022/04/07 07:35:31;;;;;;;107.70;97.35;;;;;;;;;;5014401;28;20180;-60
2022/04/07 07:38:01;;;;;;;105.83;95.53;;;;;;;;;;5014314;28;20272;-60
2022/04/07 07:40:28;;;;;;;116.38;104.78;;;;;;;;;;5014065;28;20408;-60
2022/04/07 07:42:57;;;;;;;108.60;98.15;;;;;;;;;;5014416;28;20545;-59
2022/04/07 07:45:23;;;;;;;115.45;103.70;;;;;;;;;;5014536;28;20213;-60
2022/04/07 07:47:49;;;;;;;114.85;104.10;;;;;;;;;;5014434;28;20604;-58
2022/04/07 07:50:15;;;;;;;132.77;120.67;;;;;;;;;;5013869;28;20253;-59
2022/04/07 07:52:41;;;;;;;117.80;106.20;;;;;;;;;;5013598;28;20448;-59
2022/04/07 07:55:07;;;;;;;125.43;113.07;;;;;;;;;;5013577;28;20401;-60
2022/04/07 07:57:33;;;;;;;121.43;109.80;;;;;;;;;;5014498;28;20497;-60
2022/04/07 08:00:00;;;;;;;126.20;115.13;;;;;;;;;;5014379;28;20260;-55
2022/04/07 08:02:27;;;;;;;133.70;121.85;;;;;;;;;;5014183;28;20992;-60
2022/04/07 08:04:53;;;;;;;125.10;113.20;;;;;;;;;;5013730;28;20196;-59
2022/04/07 08:07:21;;;;;;;126.57;113.22;;;;;;;;;;5016678;28;20213;-58
2022/04/07 08:09:47;;;;;;;128.43;115.85;;;;;;;;;;5014322;28;20657;-61
2022/04/07 08:12:13;;;;;;;126.07;112.67;;;;;;;;;;5013943;28;20264;-60
2022/04/07 08:14:39;;;;;;;128.70;112.47;;;;;;;;;;5013952;28;20443;-60
2022/04/07 08:17:05;;;;;;;123.73;110.53;;;;;;;;;;5013423;28;20499;-59
2022/04/07 08:19:31;;;;;;;120.70;107.83;;;;;;;;;;5013872;28;20443;-61
2022/04/07 08:21:57;;;;;;;133.80;119.13;;;;;;;;;;5013507;28;20416;-62
2022/04/07 08:24:23;;;;;;;131.50;117.90;;;;;;;;;;5013783;28;20693;-59
2022/04/07 08:26:49;;;;;;;130.87;116.87;;;;;;;;;;5013365;28;20468;-60
2022/04/07 08:29:15;;;;;;;133.20;119.93;;;;;;;;;;5013193;28;20404;-60
2022/04/07 08:31:42;;;;;;;133.30;119.70;;;;;;;;;;5018066;28;20173;-60
2022/04/07 08:34:08;;;;;;;138.30;124.78;;;;;;;;;;5033155;28;20207;-60
2022/04/07 08:36:34;;;;;;;135.03;122.23;;;;;;;;;;5033122;28;20216;-60
2022/04/07 08:39:00;;;;;;;139.23;126.00;;;;;;;;;;5032478;28;20463;-60
2022/04/07 08:41:31;;;;;;;140.53;125.73;;;;;;;;;;5032520;28;20537;-61
2022/04/07 08:43:58;;;;;;;139.20;125.07;;;;;;;;;;5012500;28;20964;-59
2022/04/07 08:46:24;;;;;;;136.50;122.10;;;;;;;;;;5012181;28;20292;-58
2022/04/07 08:48:50;;;;;;;139.63;125.63;;;;;;;;;;5011970;28;20268;-59
2022/04/07 08:51:17;;;;;;;142.15;127.40;;;;;;;;;;5010385;28;20405;-60
2022/04/07 08:53:43;;;;;;;143.93;128.82;;;;;;;;;;5010927;28;20203;-59
2022/04/07 08:56:11;;;;;;;151.00;136.18;;;;;;;;;;5010662;28;20198;-59
2022/04/07 08:58:37;;;;;;;148.88;134.85;;;;;;;;;;4994682;28;20260;-61
2022/04/07 09:01:03;;;;;;;151.27;135.48;;;;;;;;;;5011116;28;20205;-60
2022/04/07 09:03:29;;;;;;;152.30;135.88;;;;;;;;;;5011516;28;20197;-58
2022/04/07 09:05:55;;;;;;;145.30;131.10;;;;;;;;;;5012423;28;20201;-59
2022/04/07 09:08:21;;;;;;;143.83;128.33;;;;;;;;;;5012942;28;20460;-59
2022/04/07 09:10:57;;;;;;;136.02;123.22;;;;;;;;;;5012992;28;20943;-59
2022/04/07 09:13:23;;;;;;;140.05;126.57;;;;;;;;;;5012268;28;20239;-61
2022/04/07 09:15:49;;;;;;;141.43;126.80;;;;;;;;;;5010462;28;20217;-59
2022/04/07 09:18:23;;;;;;;142.18;128.27;;;;;;;;;;5011776;28;20416;-58
2022/04/07 09:20:49;;;;;;;140.85;126.28;;;;;;;;;;5008967;28;20896;-58
2022/04/07 09:23:17;;;;;;;146.73;131.40;;;;;;;;;;5011546;28;20232;-58
2022/04/07 09:25:47;;;;;;;143.65;129.85;;;;;;;;;;5010832;28;20177;-59
2022/04/07 09:28:13;;;;;;;138.40;124.55;;;;;;;;;;5012028;28;20252;-59
2022/04/07 09:30:41;;;;;;;136.32;122.65;;;;;;;;;;5012115;28;20641;-60
2022/04/07 09:33:14;;;;;;;140.18;125.72;;;;;;;;;;5012433;28;20162;-59
2022/04/07 09:35:57;;;;;;;142.63;128.63;;;;;;;;;;5011599;28;20608;-60
2022/04/07 09:38:27;;;;;;;137.23;125.38;;;;;;;;;;5012728;28;20190;-59
2022/04/07 09:40:53;;;;;;;132.15;119.13;;;;;;;;;;5012156;28;20646;-61
2022/04/07 09:43:21;;;;;;;132.55;118.38;;;;;;;;;;5012299;28;20592;-60
2022/04/07 09:45:47;;;;;;;133.52;119.22;;;;;;;;;;5012298;28;20209;-60
2022/04/07 09:48:19;;;;;;;128.77;114.23;;;;;;;;;;5012268;28;20251;-61
2022/04/07 09:51:02;;;;;;;121.75;109.25;;;;;;;;;;5011747;28;20482;-60
2022/04/07 09:53:31;;;;;;;130.02;116.03;;;;;;;;;;5010333;28;20213;-59
2022/04/07 09:55:57;;;;;;;135.60;120.75;;;;;;;;;;5008293;28;20205;-58
2022/04/07 09:58:23;;;;;;;133.73;118.53;;;;;;;;;;5012110;28;20209;-56
2022/04/07 10:00:49;;;;;;;144.68;128.50;;;;;;;;;;5011227;28;20181;-57
2022/04/07 10:03:15;;;;;;;149.40;133.77;;;;;;;;;;5010628;28;20251;-60
2022/04/07 10:05:42;;;;;;;152.60;136.90;;;;;;;;;;5009331;28;20413;-60
2022/04/07 10:08:08;;;;;;;154.05;139.18;;;;;;;;;;5009477;28;20297;-58
2022/04/07 10:10:35;;;;;;;168.95;151.45;;;;;;;;;;5007864;28;20260;-54
2022/04/07 10:13:01;;;;;;;165.70;148.18;;;;;;;;;;5009511;28;20231;-59
2022/04/07 10:15:27;;;;;;;166.68;149.52;;;;;;;;;;5009562;28;20247;-60
2022/04/07 10:17:54;;;;;;;164.68;147.68;;;;;;;;;;5010212;28;20197;-59
2022/04/07 10:20:21;;;;;;;173.40;155.30;;;;;;;;;;5010279;28;20670;-59
2022/04/07 10:22:56;;;;;;;158.70;142.60;;;;;;;;;;5010951;28;20234;-61
2022/04/07 10:25:23;;;;;;;157.73;142.07;;;;;;;;;;5009452;28;20187;-58
2022/04/07 10:27:50;;;;;;;159.30;143.55;;;;;;;;;;5010679;28;20261;-59
2022/04/07 10:30:17;;;;;;;163.43;146.88;;;;;;;;;;5011297;28;20333;-61
2022/04/07 10:32:44;;;;;;;161.15;145.10;;;;;;;;;;5011639;28;20209;-60
2022/04/07 10:35:11;;;;;;;152.48;137.15;;;;;;;;;;5011146;28;20181;-60
2022/04/07 10:37:47;;;;;;;154.68;138.73;;;;;;;;;;5010216;28;20344;-60
2022/04/07 10:40:33;;;;;;;156.02;139.75;;;;;;;;;;5009390;28;20586;-59
2022/04/07 10:43:10;;;;;;;166.47;148.80;;;;;;;;;;5008532;28;20175;-58
2022/04/07 10:45:39;;;;;;;165.20;147.75;;;;;;;;;;5007425;28;20458;-59
2022/04/07 10:48:20;;;;;;;164.25;147.00;;;;;;;;;;5006824;28;20214;-60
2022/04/07 10:51:10;;;;;;;167.15;148.85;;;;;;;;;;5008529;28;20181;-60
2022/04/07 10:53:40;;;;;;;162.60;144.82;;;;;;;;;;5004307;28;20199;-59
2022/04/07 10:56:13;;;;;;;171.98;153.73;;;;;;;;;;5009679;28;20199;-61
2022/04/07 10:58:39;;;;;;;170.38;153.02;;;;;;;;;;5019499;28;20189;-55
2022/04/07 11:01:05;;;;;;;169.48;152.38;;;;;;;;;;5014783;28;20180;-60
2022/04/07 11:03:32;;;;;;;165.13;149.48;;;;;;;;;;5001907;28;20180;-57
2022/04/07 11:06:03;;;;;;;164.15;147.00;;;;;;;;;;5022581;28;20633;-59
2022/04/07 11:08:30;;;;;;;165.98;149.68;;;;;;;;;;5019304;28;20205;-58
2022/04/07 11:10:56;;;;;;;155.43;139.77;;;;;;;;;;5021225;28;20272;-58
2022/04/07 11:13:41;;;;;;;160.65;144.43;;;;;;;;;;5024197;28;20180;-58
2022/04/07 11:16:36;;;;;;;165.15;148.20;;;;;;;;;;5017992;28;20619;-58
2022/04/07 11:19:02;;;;;;;161.17;145.30;;;;;;;;;;5013146;28;20588;-60
2022/04/07 11:21:42;;;;;;;158.93;142.60;;;;;;;;;;5013366;28;20483;-60
2022/04/07 11:24:08;;;;;;;160.13;143.73;;;;;;;;;;5014219;28;20442;-61
2022/04/07 11:26:34;;;;;;;167.23;151.35;;;;;;;;;;5012810;28;20235;-57
2022/04/07 11:29:03;;;;;;;163.83;146.63;;;;;;;;;;5012037;28;20249;-59
2022/04/07 11:31:39;;;;;;;168.27;151.52;;;;;;;;;;5011452;28;20413;-55
2022/04/07 11:34:25;;;;;;;177.75;158.75;;;;;;;;;;5035151;22;20231;-62
2022/04/07 11:36:52;;;;;;;180.38;160.60;;;;;;;;;;5014122;28;20553;-62
2022/04/07 11:39:19;;;;;;;182.53;163.37;;;;;;;;;;5014921;28;20599;-62
2022/04/07 11:41:45;;;;;;;181.40;161.48;;;;;;;;;;5014742;28;20772;-62
2022/04/07 11:44:11;;;;;;;184.57;165.20;;;;;;;;;;5014824;28;20197;-64
2022/04/07 11:46:38;;;;;;;183.03;163.50;;;;;;;;;;5014895;28;20401;-62
2022/04/07 11:49:04;;;;;;;177.75;159.70;;;;;;;;;;5014435;28;20466;-62
2022/04/07 11:51:33;;;;;;;178.73;160.23;;;;;;;;;;5013872;28;20172;-62
2022/04/07 11:53:59;;;;;;;176.50;157.73;;;;;;;;;;5014062;28;21166;-62
2022/04/07 11:56:26;;;;;;;184.27;165.20;;;;;;;;;;5014455;28;20419;-62
2022/04/07 11:58:58;;;;;;;173.43;155.32;;;;;;;;;;5013809;28;20418;-61
2022/04/07 12:01:24;;;;;;;167.88;150.13;;;;;;;;;;5012603;28;20206;-62
2022/04/07 12:03:57;;;;;;;168.23;150.48;;;;;;;;;;5012760;28;20592;-60
2022/04/07 12:06:24;;;;;;;167.27;149.25;;;;;;;;;;5012636;28;20183;-62
2022/04/07 12:08:51;;;;;;;159.88;143.20;;;;;;;;;;5013063;28;20181;-60
2022/04/07 12:11:18;;;;;;;158.88;142.18;;;;;;;;;;5012703;28;20209;-62
2022/04/07 12:13:44;;;;;;;156.18;139.88;;;;;;;;;;5013577;28;20197;-61
2022/04/07 12:16:10;;;;;;;159.98;142.55;;;;;;;;;;5014162;28;20808;-61
2022/04/07 12:18:36;;;;;;;160.75;137.93;;;;;;;;;;5014129;28;20208;-62
2022/04/07 12:21:05;;;;;;;157.38;139.88;;;;;;;;;;5013652;28;20176;-62
2022/04/07 12:23:31;;;;;;;148.25;131.52;;;;;;;;;;5013942;28;20196;-62
2022/04/07 12:25:59;;;;;;;147.88;130.25;;;;;;;;;;5009889;28;20266;-62
2022/04/07 12:28:31;;;;;;;149.95;133.23;;;;;;;;;;4994203;28;20200;-62
2022/04/07 12:30:57;;;;;;;157.57;133.90;;;;;;;;;;4993945;28;20182;-62
2022/04/07 12:33:39;;;;;;;148.77;129.00;;;;;;;;;;4994366;28;20203;-62
2022/04/07 12:36:06;;;;;;;152.45;129.90;;;;;;;;;;4994285;28;20416;-62
2022/04/07 12:38:32;;;;;;;150.25;133.05;;;;;;;;;;4994086;28;20518;-62
2022/04/07 12:41:09;;;;;;;150.85;131.30;;;;;;;;;;4993793;28;20218;-62
2022/04/07 12:43:44;;;;;;;146.80;128.73;;;;;;;;;;4993924;28;20605;-62
2022/04/07 12:46:10;;;;;;;146.88;126.65;;;;;;;;;;4993882;28;20174;-62
2022/04/07 12:48:36;;;;;;;147.43;128.73;;;;;;;;;;4993826;28;20213;-62
2022/04/07 12:51:21;;;;;;;145.07;126.33;;;;;;;;;;4993661;28;20505;-62
2022/04/07 12:53:47;;;;;;;148.63;130.25;;;;;;;;;;4993726;28;20421;-62
2022/04/07 12:56:24;;;;;;;147.70;130.55;;;;;;;;;;4992388;28;20269;-62
2022/04/07 12:58:59;;;;;;;146.77;130.68;;;;;;;;;;4993856;28;20185;-62
2022/04/07 13:01:25;;;;;;;142.55;126.80;;;;;;;;;;4993318;28;20292;-62
2022/04/07 13:03:54;;;;;;;150.10;131.93;;;;;;;;;;4993882;28;20214;-62
2022/04/07 13:06:20;;;;;;;150.75;134.07;;;;;;;;;;4993902;28;20413;-61
2022/04/07 13:08:46;;;;;;;154.70;135.27;;;;;;;;;;4993685;28;20339;-61
2022/04/07 13:11:13;;;;;;;161.50;136.07;;;;;;;;;;4993610;28;20414;-62
2022/04/07 13:13:38;;;;;;;153.80;132.35;;;;;;;;;;4994069;28;20432;-62
2022/04/07 13:16:05;;;;;;;153.43;132.23;;;;;;;;;;4993922;28;20174;-62
2022/04/07 13:18:31;;;;;;;161.88;134.60;;;;;;;;;;4993112;28;20409;-62
2022/04/07 13:20:57;;;;;;;153.93;135.15;;;;;;;;;;4992217;28;20202;-62
2022/04/07 13:23:23;;;;;;;157.17;136.93;;;;;;;;;;4992514;28;20201;-62
2022/04/07 13:25:49;;;;;;;152.27;132.27;;;;;;;;;;5007066;28;20980;-62
2022/04/07 13:28:15;;;;;;;154.10;137.53;;;;;;;;;;5011493;28;20497;-63
2022/04/07 13:30:41;;;;;;;148.13;131.93;;;;;;;;;;5011987;28;20924;-62
2022/04/07 13:33:07;;;;;;;154.70;134.80;;;;;;;;;;5011402;28;20173;-62
2022/04/07 13:35:33;;;;;;;147.13;131.07;;;;;;;;;;5011727;28;20833;-62
2022/04/07 13:38:02;;;;;;;145.27;129.77;;;;;;;;;;5011431;28;20440;-62
2022/04/07 13:40:28;;;;;;;154.18;138.13;;;;;;;;;;5010345;28;20427;-62
2022/04/07 13:42:55;;;;;;;153.02;138.73;;;;;;;;;;5015050;28;20220;-62
2022/04/07 13:45:21;;;;;;;156.27;140.23;;;;;;;;;;5015765;28;20585;-61
2022/04/07 13:47:48;;;;;;;160.85;144.07;;;;;;;;;;5016120;28;20564;-61
2022/04/07 13:50:14;;;;;;;157.73;142.00;;;;;;;;;;5018637;28;20688;-62
2022/04/07 13:52:40;;;;;;;157.43;140.93;;;;;;;;;;5020634;28;20419;-62
2022/04/07 13:55:06;;;;;;;160.90;144.55;;;;;;;;;;5018840;28;20423;-62
2022/04/07 13:57:32;;;;;;;164.68;147.88;;;;;;;;;;5019066;28;20326;-62
2022/04/07 13:59:58;;;;;;;163.07;145.73;;;;;;;;;;5017134;28;20881;-62
2022/04/07 14:02:23;;;;;;;160.37;142.13;;;;;;;;;;5014728;28;20430;-62
2022/04/07 14:04:52;;;;;;;156.57;140.23;;;;;;;;;;5019484;28;20482;-62